sensor_id;sensor_type;location;lat;lon;timestamp;P1;durP1;ratioP1;P2;durP2;ratioP2
9328;SDS011;4703;48.748;19.142;2024-01-30T00:01:12;28.23;;;17.67;;
9328;SDS011;4703;48.748;19.142;2024-01-30T00:03:40;21.13;;;14.30;;
9328;SDS011;4703;48.748;19.142;2024-01-30T00:06:07;21.10;;;13.70;;
9328;SDS011;4703;48.748;19.142;2024-01-30T00:08:34;25.90;;;14.47;;
9328;SDS011;4703;48.748;19.142;2024-01-30T00:11:01;25.13;;;16.97;;
9328;SDS011;4703;48.748;19.142;2024-01-30T00:13:29;20.10;;;14.07;;
9328;SDS011;4703;48.748;19.142;2024-01-30T00:15:55;20.03;;;13.47;;
9328;SDS011;4703;48.748;19.142;2024-01-30T00:18:23;23.03;;;14.67;;
9328;SDS011;4703;48.748;19.142;2024-01-30T00:20:49;23.07;;;15.00;;
9328;SDS011;4703;48.748;19.142;2024-01-30T00:23:16;27.70;;;16.00;;
9328;SDS011;4703;48.748;19.142;2024-01-30T00:25:44;27.13;;;17.40;;
9328;SDS011;4703;48.748;19.142;2024-01-30T00:28:10;27.20;;;16.70;;
9328;SDS011;4703;48.748;19.142;2024-01-30T00:30:37;25.60;;;15.90;;
9328;SDS011;4703;48.748;19.142;2024-01-30T00:33:05;26.27;;;16.60;;
9328;SDS011;4703;48.748;19.142;2024-01-30T00:35:32;22.20;;;16.00;;
9328;SDS011;4703;48.748;19.142;2024-01-30T00:37:59;27.20;;;18.07;;
9328;SDS011;4703;48.748;19.142;2024-01-30T00:40:26;26.97;;;15.87;;
9328;SDS011;4703;48.748;19.142;2024-01-30T00:42:53;32.47;;;18.40;;
9328;SDS011;4703;48.748;19.142;2024-01-30T00:45:20;28.40;;;17.40;;
9328;SDS011;4703;48.748;19.142;2024-01-30T00:47:47;25.93;;;16.40;;
9328;SDS011;4703;48.748;19.142;2024-01-30T00:50:14;24.53;;;17.70;;
9328;SDS011;4703;48.748;19.142;2024-01-30T00:52:41;26.50;;;17.27;;
9328;SDS011;4703;48.748;19.142;2024-01-30T00:55:11;32.10;;;17.60;;
9328;SDS011;4703;48.748;19.142;2024-01-30T00:57:38;27.30;;;16.07;;
9328;SDS011;4703;48.748;19.142;2024-01-30T01:00:07;24.33;;;16.23;;
9328;SDS011;4703;48.748;19.142;2024-01-30T01:02:35;30.77;;;15.70;;
9328;SDS011;4703;48.748;19.142;2024-01-30T01:05:02;23.70;;;16.27;;
9328;SDS011;4703;48.748;19.142;2024-01-30T01:07:29;34.23;;;18.33;;
9328;SDS011;4703;48.748;19.142;2024-01-30T01:09:57;30.40;;;17.63;;
9328;SDS011;4703;48.748;19.142;2024-01-30T01:12:24;23.87;;;14.43;;
9328;SDS011;4703;48.748;19.142;2024-01-30T01:14:51;23.43;;;15.07;;
9328;SDS011;4703;48.748;19.142;2024-01-30T01:17:18;27.53;;;15.20;;
9328;SDS011;4703;48.748;19.142;2024-01-30T01:19:45;25.30;;;15.50;;
9328;SDS011;4703;48.748;19.142;2024-01-30T01:22:12;29.37;;;18.23;;
9328;SDS011;4703;48.748;19.142;2024-01-30T01:24:39;23.10;;;14.97;;
9328;SDS011;4703;48.748;19.142;2024-01-30T01:27:06;22.50;;;14.70;;
9328;SDS011;4703;48.748;19.142;2024-01-30T01:29:33;27.97;;;15.20;;
9328;SDS011;4703;48.748;19.142;2024-01-30T01:32:00;24.07;;;14.20;;
9328;SDS011;4703;48.748;19.142;2024-01-30T01:34:27;23.93;;;15.63;;
9328;SDS011;4703;48.748;19.142;2024-01-30T01:36:56;27.17;;;15.70;;
9328;SDS011;4703;48.748;19.142;2024-01-30T01:39:23;26.63;;;16.40;;
9328;SDS011;4703;48.748;19.142;2024-01-30T01:41:50;24.47;;;14.80;;
9328;SDS011;4703;48.748;19.142;2024-01-30T01:44:18;26.30;;;15.93;;
9328;SDS011;4703;48.748;19.142;2024-01-30T01:46:45;22.43;;;14.30;;
9328;SDS011;4703;48.748;19.142;2024-01-30T01:49:12;20.80;;;14.37;;
9328;SDS011;4703;48.748;19.142;2024-01-30T01:51:41;26.10;;;15.20;;
9328;SDS011;4703;48.748;19.142;2024-01-30T01:54:11;24.10;;;14.40;;
9328;SDS011;4703;48.748;19.142;2024-01-30T01:56:38;22.67;;;14.40;;
9328;SDS011;4703;48.748;19.142;2024-01-30T01:59:06;18.60;;;14.13;;
9328;SDS011;4703;48.748;19.142;2024-01-30T02:01:38;26.87;;;15.27;;
9328;SDS011;4703;48.748;19.142;2024-01-30T02:04:07;24.83;;;13.50;;
9328;SDS011;4703;48.748;19.142;2024-01-30T02:06:35;23.10;;;14.90;;
9328;SDS011;4703;48.748;19.142;2024-01-30T02:09:02;19.77;;;13.60;;
9328;SDS011;4703;48.748;19.142;2024-01-30T02:11:30;20.10;;;13.10;;
9328;SDS011;4703;48.748;19.142;2024-01-30T02:14:02;28.33;;;13.73;;
9328;SDS011;4703;48.748;19.142;2024-01-30T02:16:30;21.40;;;13.63;;
9328;SDS011;4703;48.748;19.142;2024-01-30T02:18:58;18.37;;;13.17;;
9328;SDS011;4703;48.748;19.142;2024-01-30T02:21:25;22.90;;;14.93;;
9328;SDS011;4703;48.748;19.142;2024-01-30T02:23:52;30.30;;;15.70;;
9328;SDS011;4703;48.748;19.142;2024-01-30T02:26:21;16.23;;;13.53;;
9328;SDS011;4703;48.748;19.142;2024-01-30T02:28:48;22.73;;;14.13;;
9328;SDS011;4703;48.748;19.142;2024-01-30T02:31:15;29.30;;;16.03;;
9328;SDS011;4703;48.748;19.142;2024-01-30T02:33:42;20.47;;;15.00;;
9328;SDS011;4703;48.748;19.142;2024-01-30T02:36:09;27.70;;;13.80;;
9328;SDS011;4703;48.748;19.142;2024-01-30T02:38:36;16.50;;;12.83;;
9328;SDS011;4703;48.748;19.142;2024-01-30T02:41:03;22.77;;;13.40;;
9328;SDS011;4703;48.748;19.142;2024-01-30T02:43:30;30.40;;;14.90;;
9328;SDS011;4703;48.748;19.142;2024-01-30T02:45:57;23.30;;;14.40;;
9328;SDS011;4703;48.748;19.142;2024-01-30T02:48:26;20.27;;;14.20;;
9328;SDS011;4703;48.748;19.142;2024-01-30T02:50:53;20.07;;;12.53;;
9328;SDS011;4703;48.748;19.142;2024-01-30T02:53:20;24.10;;;14.77;;
9328;SDS011;4703;48.748;19.142;2024-01-30T02:55:47;29.77;;;14.93;;
9328;SDS011;4703;48.748;19.142;2024-01-30T02:58:14;20.33;;;12.47;;
9328;SDS011;4703;48.748;19.142;2024-01-30T03:00:41;19.37;;;14.57;;
9328;SDS011;4703;48.748;19.142;2024-01-30T03:03:08;23.30;;;15.67;;
9328;SDS011;4703;48.748;19.142;2024-01-30T03:05:35;24.43;;;14.63;;
9328;SDS011;4703;48.748;19.142;2024-01-30T03:08:03;21.97;;;12.80;;
9328;SDS011;4703;48.748;19.142;2024-01-30T03:10:31;17.63;;;12.57;;
9328;SDS011;4703;48.748;19.142;2024-01-30T03:12:58;25.13;;;13.70;;
9328;SDS011;4703;48.748;19.142;2024-01-30T03:15:25;21.50;;;13.30;;
9328;SDS011;4703;48.748;19.142;2024-01-30T03:17:53;22.83;;;13.23;;
9328;SDS011;4703;48.748;19.142;2024-01-30T03:20:20;28.33;;;13.27;;
9328;SDS011;4703;48.748;19.142;2024-01-30T03:22:47;21.27;;;14.53;;
9328;SDS011;4703;48.748;19.142;2024-01-30T03:25:15;21.80;;;14.60;;
9328;SDS011;4703;48.748;19.142;2024-01-30T03:27:42;25.73;;;14.33;;
9328;SDS011;4703;48.748;19.142;2024-01-30T03:30:09;23.80;;;13.50;;
9328;SDS011;4703;48.748;19.142;2024-01-30T03:32:36;27.87;;;15.87;;
9328;SDS011;4703;48.748;19.142;2024-01-30T03:35:05;16.90;;;13.73;;
9328;SDS011;4703;48.748;19.142;2024-01-30T03:37:33;22.53;;;15.03;;
9328;SDS011;4703;48.748;19.142;2024-01-30T03:40:00;19.83;;;13.40;;
9328;SDS011;4703;48.748;19.142;2024-01-30T03:42:29;19.33;;;14.07;;
9328;SDS011;4703;48.748;19.142;2024-01-30T03:44:56;22.27;;;14.03;;
9328;SDS011;4703;48.748;19.142;2024-01-30T03:47:23;23.43;;;14.30;;
9328;SDS011;4703;48.748;19.142;2024-01-30T03:49:50;19.90;;;15.70;;
9328;SDS011;4703;48.748;19.142;2024-01-30T03:52:17;20.73;;;14.90;;
9328;SDS011;4703;48.748;19.142;2024-01-30T03:54:44;24.30;;;14.50;;
9328;SDS011;4703;48.748;19.142;2024-01-30T03:57:11;22.17;;;16.13;;
9328;SDS011;4703;48.748;19.142;2024-01-30T03:59:38;28.30;;;15.50;;
9328;SDS011;4703;48.748;19.142;2024-01-30T04:02:09;24.30;;;16.13;;
9328;SDS011;4703;48.748;19.142;2024-01-30T04:04:38;22.37;;;13.20;;
9328;SDS011;4703;48.748;19.142;2024-01-30T04:07:05;28.20;;;16.30;;
9328;SDS011;4703;48.748;19.142;2024-01-30T04:09:32;24.97;;;15.43;;
9328;SDS011;4703;48.748;19.142;2024-01-30T04:11:59;24.43;;;14.33;;
9328;SDS011;4703;48.748;19.142;2024-01-30T04:14:29;24.63;;;16.17;;
9328;SDS011;4703;48.748;19.142;2024-01-30T04:16:56;18.40;;;13.80;;
9328;SDS011;4703;48.748;19.142;2024-01-30T04:19:22;29.40;;;17.60;;
9328;SDS011;4703;48.748;19.142;2024-01-30T04:21:50;28.97;;;19.90;;
9328;SDS011;4703;48.748;19.142;2024-01-30T04:24:17;28.70;;;17.87;;
9328;SDS011;4703;48.748;19.142;2024-01-30T04:26:44;24.13;;;14.93;;
9328;SDS011;4703;48.748;19.142;2024-01-30T04:29:11;25.17;;;16.23;;
9328;SDS011;4703;48.748;19.142;2024-01-30T04:31:38;23.60;;;15.03;;
9328;SDS011;4703;48.748;19.142;2024-01-30T04:34:05;25.83;;;16.20;;
9328;SDS011;4703;48.748;19.142;2024-01-30T04:36:32;25.10;;;15.47;;
9328;SDS011;4703;48.748;19.142;2024-01-30T04:38:59;30.60;;;16.70;;
9328;SDS011;4703;48.748;19.142;2024-01-30T04:41:26;21.43;;;14.70;;
9328;SDS011;4703;48.748;19.142;2024-01-30T04:43:57;24.83;;;15.20;;
9328;SDS011;4703;48.748;19.142;2024-01-30T04:46:24;29.80;;;18.00;;
9328;SDS011;4703;48.748;19.142;2024-01-30T04:48:52;26.50;;;15.13;;
9328;SDS011;4703;48.748;19.142;2024-01-30T04:51:19;21.03;;;15.00;;
9328;SDS011;4703;48.748;19.142;2024-01-30T04:53:46;21.13;;;15.43;;
9328;SDS011;4703;48.748;19.142;2024-01-30T04:56:13;29.47;;;16.67;;
9328;SDS011;4703;48.748;19.142;2024-01-30T04:58:40;25.30;;;16.20;;
9328;SDS011;4703;48.748;19.142;2024-01-30T05:01:07;22.63;;;15.13;;
9328;SDS011;4703;48.748;19.142;2024-01-30T05:03:34;23.53;;;15.27;;
9328;SDS011;4703;48.748;19.142;2024-01-30T05:06:01;22.47;;;15.27;;
9328;SDS011;4703;48.748;19.142;2024-01-30T05:08:28;20.77;;;15.13;;
9328;SDS011;4703;48.748;19.142;2024-01-30T05:10:55;23.20;;;16.10;;
9328;SDS011;4703;48.748;19.142;2024-01-30T05:13:22;25.90;;;16.03;;
9328;SDS011;4703;48.748;19.142;2024-01-30T05:15:49;29.13;;;14.90;;
9328;SDS011;4703;48.748;19.142;2024-01-30T05:18:16;27.67;;;17.73;;
9328;SDS011;4703;48.748;19.142;2024-01-30T05:20:44;21.30;;;15.37;;
9328;SDS011;4703;48.748;19.142;2024-01-30T05:23:11;21.77;;;15.27;;
9328;SDS011;4703;48.748;19.142;2024-01-30T05:25:38;25.83;;;17.63;;
9328;SDS011;4703;48.748;19.142;2024-01-30T05:28:05;24.00;;;15.80;;
9328;SDS011;4703;48.748;19.142;2024-01-30T05:30:32;21.23;;;14.20;;
9328;SDS011;4703;48.748;19.142;2024-01-30T05:32:59;24.80;;;16.10;;
9328;SDS011;4703;48.748;19.142;2024-01-30T05:35:26;26.10;;;15.00;;
9328;SDS011;4703;48.748;19.142;2024-01-30T05:37:54;17.90;;;12.37;;
9328;SDS011;4703;48.748;19.142;2024-01-30T05:40:20;24.60;;;13.40;;
9328;SDS011;4703;48.748;19.142;2024-01-30T05:42:48;19.63;;;13.40;;
9328;SDS011;4703;48.748;19.142;2024-01-30T05:45:15;21.17;;;13.70;;
9328;SDS011;4703;48.748;19.142;2024-01-30T05:47:42;24.37;;;13.83;;
9328;SDS011;4703;48.748;19.142;2024-01-30T05:50:09;17.37;;;11.13;;
9328;SDS011;4703;48.748;19.142;2024-01-30T05:52:36;18.87;;;12.87;;
9328;SDS011;4703;48.748;19.142;2024-01-30T05:55:03;16.57;;;13.00;;
9328;SDS011;4703;48.748;19.142;2024-01-30T05:57:30;20.57;;;14.50;;
9328;SDS011;4703;48.748;19.142;2024-01-30T05:59:57;19.40;;;12.47;;
9328;SDS011;4703;48.748;19.142;2024-01-30T06:02:25;21.50;;;13.87;;
9328;SDS011;4703;48.748;19.142;2024-01-30T06:04:52;20.03;;;12.67;;
9328;SDS011;4703;48.748;19.142;2024-01-30T06:07:19;23.27;;;13.87;;
9328;SDS011;4703;48.748;19.142;2024-01-30T06:09:46;16.50;;;12.47;;
9328;SDS011;4703;48.748;19.142;2024-01-30T06:12:13;22.53;;;13.17;;
9328;SDS011;4703;48.748;19.142;2024-01-30T06:14:40;20.27;;;12.93;;
9328;SDS011;4703;48.748;19.142;2024-01-30T06:17:12;20.43;;;12.83;;
9328;SDS011;4703;48.748;19.142;2024-01-30T06:19:40;17.80;;;12.73;;
9328;SDS011;4703;48.748;19.142;2024-01-30T06:22:08;15.57;;;11.73;;
9328;SDS011;4703;48.748;19.142;2024-01-30T06:24:35;17.67;;;12.63;;
9328;SDS011;4703;48.748;19.142;2024-01-30T06:27:02;20.10;;;12.80;;
9328;SDS011;4703;48.748;19.142;2024-01-30T06:29:29;16.17;;;12.03;;
9328;SDS011;4703;48.748;19.142;2024-01-30T06:31:56;18.07;;;11.87;;
9328;SDS011;4703;48.748;19.142;2024-01-30T06:34:23;19.20;;;12.33;;
9328;SDS011;4703;48.748;19.142;2024-01-30T06:36:52;20.07;;;13.23;;
9328;SDS011;4703;48.748;19.142;2024-01-30T06:39:19;21.40;;;12.90;;
9328;SDS011;4703;48.748;19.142;2024-01-30T06:41:47;17.20;;;11.70;;
9328;SDS011;4703;48.748;19.142;2024-01-30T06:44:14;17.80;;;12.80;;
9328;SDS011;4703;48.748;19.142;2024-01-30T06:46:41;17.40;;;13.20;;
9328;SDS011;4703;48.748;19.142;2024-01-30T06:49:08;24.90;;;12.97;;
9328;SDS011;4703;48.748;19.142;2024-01-30T06:51:35;16.67;;;12.03;;
9328;SDS011;4703;48.748;19.142;2024-01-30T06:54:02;18.27;;;13.53;;
9328;SDS011;4703;48.748;19.142;2024-01-30T06:56:29;16.97;;;11.23;;
9328;SDS011;4703;48.748;19.142;2024-01-30T06:58:56;19.60;;;13.43;;
9328;SDS011;4703;48.748;19.142;2024-01-30T07:01:29;29.57;;;16.77;;
9328;SDS011;4703;48.748;19.142;2024-01-30T07:03:57;20.57;;;14.57;;
9328;SDS011;4703;48.748;19.142;2024-01-30T07:06:24;20.37;;;14.47;;
9328;SDS011;4703;48.748;19.142;2024-01-30T07:08:52;16.77;;;13.87;;
9328;SDS011;4703;48.748;19.142;2024-01-30T07:11:19;24.13;;;15.10;;
9328;SDS011;4703;48.748;19.142;2024-01-30T07:13:48;19.03;;;14.47;;
9328;SDS011;4703;48.748;19.142;2024-01-30T07:16:17;24.80;;;15.70;;
9328;SDS011;4703;48.748;19.142;2024-01-30T07:18:44;26.90;;;13.93;;
9328;SDS011;4703;48.748;19.142;2024-01-30T07:21:11;20.37;;;13.17;;
9328;SDS011;4703;48.748;19.142;2024-01-30T07:23:38;37.43;;;14.30;;
9328;SDS011;4703;48.748;19.142;2024-01-30T07:26:05;23.30;;;15.13;;
9328;SDS011;4703;48.748;19.142;2024-01-30T07:28:35;21.27;;;13.33;;
9328;SDS011;4703;48.748;19.142;2024-01-30T07:31:02;22.00;;;13.70;;
9328;SDS011;4703;48.748;19.142;2024-01-30T07:33:30;27.20;;;15.10;;
9328;SDS011;4703;48.748;19.142;2024-01-30T07:35:57;21.60;;;14.23;;
9328;SDS011;4703;48.748;19.142;2024-01-30T07:38:24;23.40;;;13.90;;
9328;SDS011;4703;48.748;19.142;2024-01-30T07:40:51;30.70;;;16.07;;
9328;SDS011;4703;48.748;19.142;2024-01-30T07:43:18;22.30;;;15.83;;
9328;SDS011;4703;48.748;19.142;2024-01-30T07:45:46;18.67;;;14.10;;
9328;SDS011;4703;48.748;19.142;2024-01-30T07:48:13;24.70;;;15.20;;
9328;SDS011;4703;48.748;19.142;2024-01-30T07:50:41;20.03;;;13.77;;
9328;SDS011;4703;48.748;19.142;2024-01-30T07:53:08;26.30;;;15.90;;
9328;SDS011;4703;48.748;19.142;2024-01-30T07:55:34;23.20;;;14.00;;
9328;SDS011;4703;48.748;19.142;2024-01-30T07:58:01;22.83;;;15.33;;
9328;SDS011;4703;48.748;19.142;2024-01-30T08:00:31;22.37;;;14.27;;
9328;SDS011;4703;48.748;19.142;2024-01-30T08:02:58;20.93;;;14.27;;
9328;SDS011;4703;48.748;19.142;2024-01-30T08:05:25;28.53;;;14.93;;
9328;SDS011;4703;48.748;19.142;2024-01-30T08:07:52;20.90;;;14.10;;
9328;SDS011;4703;48.748;19.142;2024-01-30T08:10:20;23.53;;;14.97;;
9328;SDS011;4703;48.748;19.142;2024-01-30T08:12:47;19.80;;;13.93;;
9328;SDS011;4703;48.748;19.142;2024-01-30T08:15:14;17.33;;;13.17;;
9328;SDS011;4703;48.748;19.142;2024-01-30T08:17:41;22.73;;;14.80;;
9328;SDS011;4703;48.748;19.142;2024-01-30T08:20:09;17.57;;;12.73;;
9328;SDS011;4703;48.748;19.142;2024-01-30T08:22:38;17.70;;;13.40;;
9328;SDS011;4703;48.748;19.142;2024-01-30T08:25:06;19.80;;;12.93;;
9328;SDS011;4703;48.748;19.142;2024-01-30T08:27:34;19.80;;;13.77;;
9328;SDS011;4703;48.748;19.142;2024-01-30T08:30:02;22.20;;;14.20;;
9328;SDS011;4703;48.748;19.142;2024-01-30T08:32:29;19.30;;;13.40;;
9328;SDS011;4703;48.748;19.142;2024-01-30T08:34:57;19.67;;;14.00;;
9328;SDS011;4703;48.748;19.142;2024-01-30T08:37:24;19.50;;;13.70;;
9328;SDS011;4703;48.748;19.142;2024-01-30T08:39:51;21.33;;;13.67;;
9328;SDS011;4703;48.748;19.142;2024-01-30T08:42:18;23.50;;;14.97;;
9328;SDS011;4703;48.748;19.142;2024-01-30T08:44:49;23.60;;;14.80;;
9328;SDS011;4703;48.748;19.142;2024-01-30T08:47:17;21.23;;;14.53;;
9328;SDS011;4703;48.748;19.142;2024-01-30T08:49:45;19.33;;;13.47;;
9328;SDS011;4703;48.748;19.142;2024-01-30T08:52:12;17.20;;;12.43;;
9328;SDS011;4703;48.748;19.142;2024-01-30T08:54:39;20.10;;;13.60;;
9328;SDS011;4703;48.748;19.142;2024-01-30T08:57:06;19.07;;;13.10;;
9328;SDS011;4703;48.748;19.142;2024-01-30T08:59:33;23.23;;;15.03;;
9328;SDS011;4703;48.748;19.142;2024-01-30T09:02:00;22.60;;;14.63;;
9328;SDS011;4703;48.748;19.142;2024-01-30T09:04:38;19.83;;;13.47;;
9328;SDS011;4703;48.748;19.142;2024-01-30T09:07:06;19.83;;;12.90;;
9328;SDS011;4703;48.748;19.142;2024-01-30T09:09:38;16.73;;;12.60;;
9328;SDS011;4703;48.748;19.142;2024-01-30T09:12:08;20.93;;;13.80;;
9328;SDS011;4703;48.748;19.142;2024-01-30T09:14:38;14.80;;;11.17;;
9328;SDS011;4703;48.748;19.142;2024-01-30T09:17:07;17.17;;;12.57;;
9328;SDS011;4703;48.748;19.142;2024-01-30T09:19:35;19.67;;;12.77;;
9328;SDS011;4703;48.748;19.142;2024-01-30T09:22:02;17.63;;;12.63;;
9328;SDS011;4703;48.748;19.142;2024-01-30T09:24:30;24.63;;;13.10;;
9328;SDS011;4703;48.748;19.142;2024-01-30T09:26:57;16.27;;;12.43;;
9328;SDS011;4703;48.748;19.142;2024-01-30T09:29:24;18.57;;;12.50;;
9328;SDS011;4703;48.748;19.142;2024-01-30T09:31:51;14.97;;;11.97;;
9328;SDS011;4703;48.748;19.142;2024-01-30T09:34:18;19.37;;;12.00;;
9328;SDS011;4703;48.748;19.142;2024-01-30T09:36:46;18.60;;;12.27;;
9328;SDS011;4703;48.748;19.142;2024-01-30T09:39:13;17.90;;;11.93;;
9328;SDS011;4703;48.748;19.142;2024-01-30T09:44:44;18.10;;;12.80;;
9328;SDS011;4703;48.748;19.142;2024-01-30T09:47:13;19.23;;;12.80;;
9328;SDS011;4703;48.748;19.142;2024-01-30T09:49:43;20.60;;;12.23;;
9328;SDS011;4703;48.748;19.142;2024-01-30T09:52:11;22.00;;;13.33;;
9328;SDS011;4703;48.748;19.142;2024-01-30T09:54:38;16.70;;;12.97;;
9328;SDS011;4703;48.748;19.142;2024-01-30T09:57:08;18.97;;;14.20;;
9328;SDS011;4703;48.748;19.142;2024-01-30T09:59:35;20.80;;;12.73;;
9328;SDS011;4703;48.748;19.142;2024-01-30T10:02:02;24.60;;;14.73;;
9328;SDS011;4703;48.748;19.142;2024-01-30T10:04:30;21.20;;;12.73;;
9328;SDS011;4703;48.748;19.142;2024-01-30T10:06:59;18.10;;;12.00;;
9328;SDS011;4703;48.748;19.142;2024-01-30T10:09:31;20.70;;;14.07;;
9328;SDS011;4703;48.748;19.142;2024-01-30T10:12:00;20.20;;;14.07;;
9328;SDS011;4703;48.748;19.142;2024-01-30T10:14:30;22.93;;;15.43;;
9328;SDS011;4703;48.748;19.142;2024-01-30T10:17:01;20.57;;;15.40;;
9328;SDS011;4703;48.748;19.142;2024-01-30T10:19:40;18.40;;;12.47;;
9328;SDS011;4703;48.748;19.142;2024-01-30T10:22:08;19.17;;;12.83;;
9328;SDS011;4703;48.748;19.142;2024-01-30T10:24:36;23.37;;;13.60;;
9328;SDS011;4703;48.748;19.142;2024-01-30T10:27:05;22.43;;;12.60;;
9328;SDS011;4703;48.748;19.142;2024-01-30T10:29:32;25.90;;;13.03;;
9328;SDS011;4703;48.748;19.142;2024-01-30T10:32:03;23.43;;;12.30;;
9328;SDS011;4703;48.748;19.142;2024-01-30T10:34:31;21.03;;;13.73;;
9328;SDS011;4703;48.748;19.142;2024-01-30T10:36:59;30.00;;;20.50;;
9328;SDS011;4703;48.748;19.142;2024-01-30T10:39:44;22.10;;;14.33;;
9328;SDS011;4703;48.748;19.142;2024-01-30T10:42:12;17.20;;;13.23;;
9328;SDS011;4703;48.748;19.142;2024-01-30T10:44:44;19.73;;;14.00;;
9328;SDS011;4703;48.748;19.142;2024-01-30T10:47:28;18.47;;;13.53;;
9328;SDS011;4703;48.748;19.142;2024-01-30T10:49:56;23.70;;;14.87;;
9328;SDS011;4703;48.748;19.142;2024-01-30T10:52:24;18.33;;;13.50;;
9328;SDS011;4703;48.748;19.142;2024-01-30T10:54:54;17.60;;;13.60;;
9328;SDS011;4703;48.748;19.142;2024-01-30T10:57:25;16.50;;;12.40;;
9328;SDS011;4703;48.748;19.142;2024-01-30T10:59:56;17.40;;;12.00;;
9328;SDS011;4703;48.748;19.142;2024-01-30T11:02:25;19.73;;;12.57;;
9328;SDS011;4703;48.748;19.142;2024-01-30T11:04:59;20.17;;;12.33;;
9328;SDS011;4703;48.748;19.142;2024-01-30T11:07:27;18.17;;;14.13;;
9328;SDS011;4703;48.748;19.142;2024-01-30T11:12:30;19.67;;;13.77;;
9328;SDS011;4703;48.748;19.142;2024-01-30T11:22:45;15.30;;;10.20;;
9328;SDS011;4703;48.748;19.142;2024-01-30T11:25:14;14.20;;;10.43;;
9328;SDS011;4703;48.748;19.142;2024-01-30T11:27:42;16.90;;;11.30;;
9328;SDS011;4703;48.748;19.142;2024-01-30T11:30:11;14.57;;;10.13;;
9328;SDS011;4703;48.748;19.142;2024-01-30T11:33:00;16.10;;;10.07;;
9328;SDS011;4703;48.748;19.142;2024-01-30T11:35:29;15.20;;;11.00;;
9328;SDS011;4703;48.748;19.142;2024-01-30T11:38:01;15.23;;;10.37;;
9328;SDS011;4703;48.748;19.142;2024-01-30T11:40:34;13.40;;;10.30;;
9328;SDS011;4703;48.748;19.142;2024-01-30T11:43:06;16.83;;;9.70;;
9328;SDS011;4703;48.748;19.142;2024-01-30T11:45:36;16.67;;;9.90;;
9328;SDS011;4703;48.748;19.142;2024-01-30T11:48:04;17.20;;;11.13;;
9328;SDS011;4703;48.748;19.142;2024-01-30T11:50:32;17.07;;;12.40;;
9328;SDS011;4703;48.748;19.142;2024-01-30T11:53:01;19.77;;;12.27;;
9328;SDS011;4703;48.748;19.142;2024-01-30T11:55:31;19.57;;;12.80;;
9328;SDS011;4703;48.748;19.142;2024-01-30T11:58:01;16.87;;;12.77;;
9328;SDS011;4703;48.748;19.142;2024-01-30T12:00:29;19.57;;;14.73;;
9328;SDS011;4703;48.748;19.142;2024-01-30T12:03:01;18.77;;;14.57;;
9328;SDS011;4703;48.748;19.142;2024-01-30T12:05:29;17.43;;;13.03;;
9328;SDS011;4703;48.748;19.142;2024-01-30T12:07:57;18.93;;;13.70;;
9328;SDS011;4703;48.748;19.142;2024-01-30T12:10:28;16.80;;;13.87;;
9328;SDS011;4703;48.748;19.142;2024-01-30T12:12:56;20.40;;;14.60;;
9328;SDS011;4703;48.748;19.142;2024-01-30T12:15:24;16.37;;;12.83;;
9328;SDS011;4703;48.748;19.142;2024-01-30T12:17:51;13.80;;;12.40;;
9328;SDS011;4703;48.748;19.142;2024-01-30T12:20:18;16.97;;;12.67;;
9328;SDS011;4703;48.748;19.142;2024-01-30T12:22:49;21.50;;;13.40;;
9328;SDS011;4703;48.748;19.142;2024-01-30T12:25:17;17.40;;;13.00;;
9328;SDS011;4703;48.748;19.142;2024-01-30T12:27:48;19.50;;;13.00;;
9328;SDS011;4703;48.748;19.142;2024-01-30T12:30:18;16.70;;;13.40;;
9328;SDS011;4703;48.748;19.142;2024-01-30T12:32:47;19.57;;;13.17;;
9328;SDS011;4703;48.748;19.142;2024-01-30T12:35:18;19.03;;;13.80;;
9328;SDS011;4703;48.748;19.142;2024-01-30T12:37:47;15.23;;;12.97;;
9328;SDS011;4703;48.748;19.142;2024-01-30T12:40:15;17.40;;;12.07;;
9328;SDS011;4703;48.748;19.142;2024-01-30T12:42:43;14.80;;;12.97;;
9328;SDS011;4703;48.748;19.142;2024-01-30T12:45:15;15.53;;;13.10;;
9328;SDS011;4703;48.748;19.142;2024-01-30T12:47:46;20.77;;;13.77;;
9328;SDS011;4703;48.748;19.142;2024-01-30T12:50:13;16.67;;;11.80;;
9328;SDS011;4703;48.748;19.142;2024-01-30T12:52:42;18.97;;;12.90;;
9328;SDS011;4703;48.748;19.142;2024-01-30T12:55:14;15.30;;;11.70;;
9328;SDS011;4703;48.748;19.142;2024-01-30T12:57:41;16.47;;;11.83;;
9328;SDS011;4703;48.748;19.142;2024-01-30T13:00:09;14.90;;;11.17;;
9328;SDS011;4703;48.748;19.142;2024-01-30T13:02:36;14.30;;;11.77;;
9328;SDS011;4703;48.748;19.142;2024-01-30T13:05:04;13.83;;;11.10;;
9328;SDS011;4703;48.748;19.142;2024-01-30T13:07:31;17.67;;;11.90;;
9328;SDS011;4703;48.748;19.142;2024-01-30T13:09:58;13.47;;;11.60;;
9328;SDS011;4703;48.748;19.142;2024-01-30T13:12:30;14.47;;;11.53;;
9328;SDS011;4703;48.748;19.142;2024-01-30T13:14:59;15.63;;;12.03;;
9328;SDS011;4703;48.748;19.142;2024-01-30T13:17:27;13.23;;;10.57;;
9328;SDS011;4703;48.748;19.142;2024-01-30T13:19:54;14.30;;;11.70;;
9328;SDS011;4703;48.748;19.142;2024-01-30T13:22:32;14.40;;;10.00;;
9328;SDS011;4703;48.748;19.142;2024-01-30T13:24:59;14.13;;;10.90;;
9328;SDS011;4703;48.748;19.142;2024-01-30T13:27:26;14.73;;;10.60;;
9328;SDS011;4703;48.748;19.142;2024-01-30T13:29:53;13.73;;;9.90;;
9328;SDS011;4703;48.748;19.142;2024-01-30T13:32:20;15.10;;;10.20;;
9328;SDS011;4703;48.748;19.142;2024-01-30T13:34:47;11.90;;;10.60;;
9328;SDS011;4703;48.748;19.142;2024-01-30T13:37:14;14.07;;;8.90;;
9328;SDS011;4703;48.748;19.142;2024-01-30T13:39:41;13.23;;;10.60;;
9328;SDS011;4703;48.748;19.142;2024-01-30T13:42:08;11.93;;;9.23;;
9328;SDS011;4703;48.748;19.142;2024-01-30T13:44:36;15.00;;;11.77;;
9328;SDS011;4703;48.748;19.142;2024-01-30T13:47:03;14.97;;;9.83;;
9328;SDS011;4703;48.748;19.142;2024-01-30T13:49:30;11.93;;;9.17;;
9328;SDS011;4703;48.748;19.142;2024-01-30T13:51:57;12.37;;;9.27;;
9328;SDS011;4703;48.748;19.142;2024-01-30T13:54:25;13.20;;;10.10;;
9328;SDS011;4703;48.748;19.142;2024-01-30T13:56:52;13.10;;;10.17;;
9328;SDS011;4703;48.748;19.142;2024-01-30T13:59:19;14.73;;;10.17;;
9328;SDS011;4703;48.748;19.142;2024-01-30T14:01:50;15.20;;;10.03;;
9328;SDS011;4703;48.748;19.142;2024-01-30T14:04:18;13.20;;;9.53;;
9328;SDS011;4703;48.748;19.142;2024-01-30T14:06:45;11.00;;;8.90;;
9328;SDS011;4703;48.748;19.142;2024-01-30T14:09:22;11.70;;;8.70;;
9328;SDS011;4703;48.748;19.142;2024-01-30T14:11:49;13.90;;;9.40;;
9328;SDS011;4703;48.748;19.142;2024-01-30T14:14:16;14.73;;;10.83;;
9328;SDS011;4703;48.748;19.142;2024-01-30T14:16:43;11.83;;;10.17;;
9328;SDS011;4703;48.748;19.142;2024-01-30T14:19:10;14.20;;;11.53;;
9328;SDS011;4703;48.748;19.142;2024-01-30T14:21:37;16.60;;;11.10;;
9328;SDS011;4703;48.748;19.142;2024-01-30T14:24:06;13.30;;;9.93;;
9328;SDS011;4703;48.748;19.142;2024-01-30T14:26:33;12.93;;;10.30;;
9328;SDS011;4703;48.748;19.142;2024-01-30T14:29:01;15.77;;;11.07;;
9328;SDS011;4703;48.748;19.142;2024-01-30T14:31:28;15.33;;;10.67;;
9328;SDS011;4703;48.748;19.142;2024-01-30T14:33:55;13.33;;;9.90;;
9328;SDS011;4703;48.748;19.142;2024-01-30T14:36:22;14.67;;;10.60;;
9328;SDS011;4703;48.748;19.142;2024-01-30T14:38:54;14.80;;;10.53;;
9328;SDS011;4703;48.748;19.142;2024-01-30T14:41:21;14.20;;;10.10;;
9328;SDS011;4703;48.748;19.142;2024-01-30T14:43:48;16.07;;;11.13;;
9328;SDS011;4703;48.748;19.142;2024-01-30T14:46:15;13.43;;;10.33;;
9328;SDS011;4703;48.748;19.142;2024-01-30T14:48:43;19.87;;;13.17;;
9328;SDS011;4703;48.748;19.142;2024-01-30T14:51:10;23.23;;;15.00;;
9328;SDS011;4703;48.748;19.142;2024-01-30T14:53:37;23.70;;;16.20;;